Data for 05/27/2013

Time Sea-Level Adjusted Pressure Absolute Pressure Temperature Relative Humidity Dew Point   
(mb) (inHg) (mb) (inHg) (C) (F) (%) (C) (F)
00:05 1015 29.97 845 24.95 7.8 46.1 82 4.9 40.8
00:10 1015 29.97 845 24.95 7.7 45.8 83 4.9 40.9
00:15 1015 29.97 845 24.95 7.5 45.4 85 5 41.1
00:20 1015 29.97 845 24.95 7.3 45.1 86 5 41
00:25 1015 29.97 845 24.95 7.2 45 88 5.3 41.5
00:30 1015 29.97 845 24.95 6.8 44.3 90 5.4 41.6
00:35 1015 29.97 845 24.95 6.5 43.6 92 5.2 41.3
00:40 1015 29.97 845 24.95 6.3 43.4 92 5.1 41.2
00:45 1015 29.97 845 24.95 6.3 43.3 92 5.1 41.2
00:50 1015 29.97 845 24.95 6.3 43.3 92 5.1 41.3
00:55 1015 29.97 845 24.95 6.3 43.3 92 5.1 41.2
01:00 1015 29.97 845 24.95 6.2 43.2 92 5 41.1
01:05 1015 29.97 845 24.95 6.1 43 93 5 41.1
01:10 1015 29.97 845 24.95 6.1 43 93 5 41
01:15 1015 29.97 845 24.95 6.1 43 93 5 41
01:20 1015 29.97 844 24.92 6.1 42.9 93 5 41
01:25 1015 29.97 844 24.92 6.1 42.9 93 5 41
01:30 1015 29.97 845 24.95 5.9 42.7 94 5 41
01:35 1015 29.97 845 24.95 5.8 42.5 94 4.9 40.8
01:40 1016 30 845 24.95 5.8 42.5 94 4.9 40.9
01:45 1016 30 845 24.95 5.7 42.2 93 4.7 40.4
01:50 1016 30 845 24.95 5.2 41.4 94 4.3 39.8
01:55 1016 30 845 24.95 5 41.1 95 4.3 39.7
02:00 1016 30 845 24.95 5.3 41.5 95 4.6 40.2
02:05 1016 30 845 24.95 5.4 41.7 95 4.6 40.4
02:10 1016 30 845 24.95 5.3 41.6 94 4.5 40.1
02:15 1016 30 845 24.95 5.2 41.4 94 4.4 39.9
02:20 1016 30 845 24.95 5.2 41.4 95 4.4 40
02:25 1016 30 845 24.95 5.3 41.5 95 4.5 40.1
02:30 1016 30 845 24.95 5.4 41.7 94 4.5 40.2
02:35 1016 30 845 24.95 5.4 41.6 94 4.5 40
02:40 1016 30 845 24.95 5.5 41.9 94 4.6 40.3
02:45 1016 30 845 24.95 5.7 42.2 93 4.6 40.3
02:50 1016 30 845 24.95 5.6 42.1 94 4.7 40.5
02:55 1016 30 845 24.95 5.9 42.6 93 4.8 40.7
03:00 1016 30 845 24.95 6.1 43 92 4.9 40.8
03:05 1016 30 845 24.95 6.3 43.3 91 4.9 40.8
03:10 1016 30 845 24.95 6.2 43.2 92 4.9 40.9
03:15 1016 30 845 24.95 6 42.8 92 4.8 40.7
03:20 1016 30 845 24.95 5.8 42.4 93 4.7 40.4
03:25 1016 30 845 24.95 5.8 42.4 93 4.7 40.5
03:30 1015 29.97 845 24.95 5.8 42.5 93 4.8 40.6
03:35 1015 29.97 844 24.92 5.9 42.6 93 4.8 40.6
03:40 1015 29.97 844 24.92 6.1 43.1 92 5 41
03:45 1015 29.97 844 24.92 6.3 43.3 92 5 41.1
03:50 1015 29.97 844 24.92 6.1 43 92 4.9 40.8
03:55 1015 29.97 844 24.92 5.9 42.6 92 4.7 40.5
04:00 1015 29.97 844 24.92 5.8 42.5 93 4.7 40.5
04:05 1015 29.97 844 24.92 5.8 42.4 93 4.7 40.4
04:10 1015 29.97 844 24.92 5.8 42.4 93 4.7 40.4
04:15 1015 29.97 844 24.92 5.8 42.5 92 4.7 40.5
04:20 1015 29.97 844 24.92 5.9 42.7 92 4.7 40.5
04:25 1015 29.97 844 24.92 6 42.8 91 4.7 40.4
04:30 1015 29.97 844 24.92 6 42.8 91 4.7 40.4
04:35 1015 29.97 844 24.92 5.9 42.7 91 4.6 40.3
04:40 1015 29.97 844 24.92 5.9 42.5 91 4.6 40.2
04:45 1015 29.97 844 24.92 5.9 42.5 91 4.5 40.1
04:50 1015 29.97 844 24.92 6.1 43 89 4.4 40
04:55 1015 29.97 844 24.92 6.4 43.5 88 4.5 40.1
05:00 1015 29.97 844 24.92 6.4 43.5 88 4.6 40.2
05:05 1015 29.97 844 24.92 6.1 42.9 89 4.4 39.9
05:10 1015 29.97 844 24.92 6.2 43.2 89 4.4 40
05:15 1015 29.97 844 24.92 6.2 43.2 89 4.5 40.1
05:20 1015 29.97 844 24.92 6.2 43.2 89 4.5 40.1
05:25 1015 29.97 844 24.92 6.2 43.1 89 4.5 40.1
05:30 1015 29.97 844 24.92 6.2 43.1 88 4.4 39.9
05:35 1015 29.97 844 24.92 6.3 43.4 88 4.5 40.1
05:40 1015 29.97 844 24.92 6.3 43.3 88 4.4 39.9
05:45 1015 29.97 844 24.92 6.3 43.3 88 4.4 39.8
05:50 1015 29.97 844 24.92 6.4 43.6 85 4.2 39.5
05:55 1015 29.97 844 24.92 6.8 44.2 84 4.3 39.7
06:00 1015 29.97 844 24.92 7 44.6 81 4 39.2
06:05 1015 29.97 844 24.92 7.4 45.3 80 4.1 39.4
06:10 1015 29.97 844 24.92 7.7 45.9 79 4.3 39.7
06:15 1015 29.97 844 24.92 7.9 46.1 78 4.3 39.8
06:20 1015 29.97 844 24.92 7.7 45.8 80 4.4 39.9
06:25 1015 29.97 844 24.92 7.9 46.3 79 4.5 40.1
06:30 1015 29.97 844 24.92 8.3 47 79 4.8 40.7
06:35 1015 29.97 844 24.92 8.8 47.9 76 4.9 40.7
06:40 1015 29.97 844 24.92 8.7 47.7 78 5.1 41.1
06:45 1015 29.97 845 24.95 9.1 48.3 77 5.3 41.5
06:50 1015 29.97 845 24.95 9.5 49 79 6 42.8
06:55 1015 29.97 845 24.95 9.2 48.6 81 6.2 43.1
07:00 1015 29.97 845 24.95 8.8 47.9 84 6.3 43.3
07:05 1016 30 845 24.95 8.4 47.2 85 6.1 43
07:10 1016 30 845 24.95 8.1 46.5 86 5.8 42.5
07:15 1016 30 845 24.95 7.7 45.9 86 5.5 41.9
07:20 1016 30 845 24.95 7.4 45.3 82 4.5 40.2
07:25 1016 30 845 24.95 6.8 44.2 81 3.8 38.9
07:30 1016 30 845 24.95 6.5 43.7 83 3.8 38.8
07:35 1016 30 845 24.95 6.1 43.1 85 3.9 39
07:40 1016 30 845 24.95 6 42.7 84 3.5 38.4
07:45 1016 30 845 24.95 5.9 42.7 84 3.4 38.2
07:50 1016 30 845 24.95 6 42.8 83 3.3 37.9
07:55 1016 30 845 24.95 6.2 43.2 80 3 37.3
08:00 1016 30 845 24.95 6.4 43.5 80 3.2 37.7
08:05 1016 30 845 24.95 6.4 43.6 80 3.3 37.9
08:10 1016 30 845 24.95 6.5 43.6 81 3.4 38.2
08:15 1016 30 845 24.95 6.5 43.7 80 3.4 38.1
08:20 1016 30 845 24.95 6.4 43.5 79 2.9 37.3
08:25 1016 30 845 24.95 6.5 43.7 79 3.1 37.7
08:30 1016 30 845 24.95 6.7 44.1 82 3.9 39
08:35 1016 30 845 24.95 7 44.5 82 4.2 39.5
08:40 1016 30 845 24.95 6.9 44.4 82 4 39.2
08:45 1016 30 845 24.95 6.9 44.4 82 4 39.1
08:50 1016 30 845 24.95 6.9 44.4 83 4.2 39.5
08:55 1016 30 845 24.95 6.9 44.4 82 4 39.2
09:00 1016 30 845 24.95 6.9 44.4 84 4.4 40
09:05 1016 30 845 24.95 7 44.6 85 4.7 40.5
09:10 1016 30 845 24.95 7.3 45.1 81 4.2 39.6
09:15 1016 30 845 24.95 7.8 46.1 78 4.2 39.5
09:20 1015 29.97 845 24.95 7.9 46.3 78 4.4 39.8
09:25 1015 29.97 845 24.95 7.7 45.9 81 4.7 40.5
09:30 1015 29.97 845 24.95 8.2 46.7 79 4.7 40.5
09:35 1015 29.97 845 24.95 8.7 47.7 79 5.4 41.6
09:40 1015 29.97 845 24.95 9.7 49.5 68 4.2 39.5
09:45 1015 29.97 845 24.95 9.7 49.5 72 4.9 40.8
09:50 1015 29.97 845 24.95 9.8 49.6 67 4 39.1
09:55 1016 30 845 24.95 10.1 50.2 67 4.2 39.6
10:00 1015 29.97 845 24.95 10 50 63 3.4 38.1
10:05 1015 29.97 845 24.95 10.1 50.1 67 4.2 39.5
10:10 1015 29.97 845 24.95 10.7 51.2 63 4.1 39.3
10:15 1015 29.97 845 24.95 10.8 51.5 60 3.4 38.1
10:20 1015 29.97 845 24.95 11.6 52.9 58 3.6 38.5
10:25 1015 29.97 845 24.95 11.1 51.9 63 4.3 39.7
10:30 1015 29.97 845 24.95 11.7 53.1 57 3.7 38.6
10:35 1015 29.97 845 24.95 12.4 54.2 56 3.9 39
10:40 1016 30 845 24.95 12 53.5 56 3.5 38.3
10:45 1016 30 845 24.95 12.3 54.1 55 3.5 38.2
10:50 1016 30 845 24.95 12.3 54.1 56 3.8 38.8
10:55 1016 30 845 24.95 13.1 55.5 52 3.6 38.5
11:00 1016 30 845 24.95 12.7 54.9 56 4.1 39.4
11:05 1015 29.97 845 24.95 12.2 54 56 3.8 38.8
11:10 1015 29.97 845 24.95 12.9 55.2 53 3.7 38.7
11:15 1015 29.97 845 24.95 13.3 55.9 53 4 39.1
11:20 1015 29.97 845 24.95 13.2 55.8 54 4.1 39.3
11:25 1015 29.97 845 24.95 13.1 55.5 55 4.2 39.5
11:30 1015 29.97 845 24.95 12.5 54.5 55 3.8 38.8
11:35 1015 29.97 845 24.95 12.5 54.5 56 3.9 39.1
11:40 1015 29.97 845 24.95 12.4 54.4 58 4.4 39.8
11:45 1015 29.97 845 24.95 13 55.4 55 4.2 39.6
11:50 1015 29.97 845 24.95 13.2 55.8 53 3.9 39
11:55 1015 29.97 844 24.92 13.4 56.2 51 3.7 38.6
12:00 1015 29.97 844 24.92 13.5 56.4 54 4.5 40.1
12:05 1015 29.97 844 24.92 13.7 56.7 53 4.5 40.1
12:10 1015 29.97 844 24.92 13.8 56.8 54 4.6 40.3
12:15 1015 29.97 844 24.92 14.6 58.3 48 3.7 38.7
12:20 1015 29.97 844 24.92 15 58.9 49 4.5 40
12:25 1015 29.97 844 24.92 14.7 58.4 52 5.1 41.2
12:30 1015 29.97 844 24.92 14.5 58.1 50 4.2 39.5
12:35 1015 29.97 844 24.92 14.9 58.8 50 4.5 40.1
12:40 1015 29.97 844 24.92 14.7 58.4 50 4.3 39.8
12:45 1015 29.97 844 24.92 14.4 57.9 51 4.6 40.2
12:50 1015 29.97 844 24.92 14.6 58.3 50 4.5 40.1
12:55 1015 29.97 844 24.92 14.8 58.6 49 4.4 39.9
13:00 1015 29.97 844 24.92 14.7 58.4 49 4 39.2
13:05 1015 29.97 844 24.92 14.2 57.5 51 4.3 39.8
13:10 1015 29.97 844 24.92 15 58.9 49 4.3 39.8
13:15 1015 29.97 844 24.92 14.7 58.4 48 3.9 38.9
13:20 1015 29.97 844 24.92 14.7 58.4 50 4.5 40.2
13:25 1015 29.97 844 24.92 14.6 58.2 51 4.6 40.2
13:30 1015 29.97 844 24.92 14.2 57.6 51 4.4 39.9
13:35 1015 29.97 844 24.92 13.9 57 51 3.9 39.1
13:40 1015 29.97 844 24.92 14.3 57.8 48 3.5 38.2
13:45 1014 29.94 844 24.92 15 58.9 47 3.8 38.8
13:50 1014 29.94 844 24.92 15.2 59.4 44 3 37.4
13:55 1014 29.94 844 24.92 15.3 59.5 45 3.7 38.6
14:00 1014 29.94 844 24.92 15.4 59.8 46 3.9 39
14:05 1014 29.94 844 24.92 14.8 58.6 47 3.6 38.5
14:10 1014 29.94 844 24.92 15.4 59.7 44 3.4 38.2
14:15 1014 29.94 844 24.92 15.9 60.7 42 3.1 37.6
14:20 1014 29.94 843 24.89 16 60.9 44 3.9 39
14:25 1014 29.94 843 24.89 15.4 59.8 50 5.1 41.2
14:30 1014 29.94 843 24.89 15.3 59.5 51 5.3 41.5
14:35 1014 29.94 843 24.89 15.6 60.1 48 4.7 40.5
14:40 1014 29.94 843 24.89 15.6 60.1 47 4.3 39.8
14:45 1014 29.94 843 24.89 16 60.8 48 4.9 40.9
14:50 1014 29.94 843 24.89 15.1 59.2 48 4.4 39.9
14:55 1014 29.94 843 24.89 15.3 59.6 47 4.1 39.3
15:00 1014 29.94 843 24.89 15.1 59.2 47 3.9 39
15:05 1014 29.94 843 24.89 15.1 59.2 48 4.4 39.9
15:10 1014 29.94 843 24.89 14.7 58.4 51 4.8 40.6
15:15 1014 29.94 843 24.89 14.6 58.3 49 4 39.1
15:20 1014 29.94 843 24.89 14.8 58.7 47 3.6 38.4
15:25 1014 29.94 843 24.89 15.4 59.6 47 4.2 39.5
15:30 1014 29.94 843 24.89 15.6 60.2 44 3.6 38.5
15:35 1014 29.94 843 24.89 15.6 60 46 4.1 39.4
15:40 1013 29.91 843 24.89 15.8 60.5 41 2.6 36.6
15:45 1013 29.91 843 24.89 16.2 61.2 40 2.9 37.2
15:50 1013 29.91 843 24.89 16.9 62.3 40 3.4 38.1
15:55 1013 29.91 843 24.89 16.9 62.4 42 4 39.3
16:00 1013 29.91 843 24.89 16.9 62.5 41 3.7 38.7
16:05 1013 29.91 843 24.89 15.6 60.2 46 4 39.3
16:10 1013 29.91 842 24.86 15.7 60.3 43 3.4 38.1
16:15 1013 29.91 842 24.86 15.7 60.3 43 3.3 38
16:20 1013 29.91 842 24.86 16.6 62 39 2.8 37
16:25 1013 29.91 842 24.86 16.7 62.1 41 3.6 38.5
16:30 1013 29.91 842 24.86 16.9 62.3 39 3 37.4
16:35 1013 29.91 842 24.86 17.3 63.2 36 2.3 36.2
16:40 1013 29.91 842 24.86 16.9 62.4 40 3.4 38.2
16:45 1013 29.91 842 24.86 16.5 61.6 42 3.5 38.3
16:50 1013 29.91 842 24.86 16.4 61.5 42 3.6 38.5
16:55 1013 29.91 842 24.86 15.5 59.8 44 3.2 37.8
17:00 1013 29.91 842 24.86 16 60.8 41 3 37.3
17:05 1013 29.91 842 24.86 16.2 61.2 41 3.1 37.6
17:10 1012 29.88 842 24.86 16.4 61.6 43 3.9 38.9
17:15 1012 29.88 842 24.86 16.1 61 42 3.3 38
17:20 1012 29.88 842 24.86 16.5 61.6 41 3.3 38
17:25 1012 29.88 842 24.86 16.8 62.2 40 3.2 37.7
17:30 1012 29.88 842 24.86 17 62.6 40 3.3 38
17:35 1012 29.88 842 24.86 17.1 62.9 38 2.8 37.1
17:40 1012 29.88 841 24.83 17.2 62.9 38 3 37.3
17:45 1012 29.88 841 24.83 17 62.6 39 3.1 37.6
17:50 1012 29.88 841 24.83 16.7 62 39 2.9 37.2
17:55 1012 29.88 841 24.83 16.4 61.6 41 3.1 37.6
18:00 1012 29.88 841 24.83 16.3 61.4 39 2.6 36.6
18:05 1012 29.88 841 24.83 16.1 61 42 3.3 37.9
18:10 1012 29.88 841 24.83 15.9 60.6 43 3.3 38
18:15 1012 29.88 841 24.83 15.5 60 44 3.3 38
18:20 1012 29.88 841 24.83 15.3 59.5 44 3.1 37.5
18:25 1012 29.88 841 24.83 15.5 59.8 44 3.3 37.9
18:30 1012 29.88 841 24.83 15.2 59.3 44 3 37.4
18:35 1012 29.88 841 24.83 15 59.1 44 3.1 37.5
18:40 1012 29.88 841 24.83 14.8 58.6 45 3 37.4
18:45 1012 29.88 841 24.83 14.9 58.8 44 2.8 37.1
18:50 1012 29.88 841 24.83 15 59 44 2.9 37.3
18:55 1012 29.88 841 24.83 15.1 59.1 43 2.8 37
19:00 1012 29.88 841 24.83 14.9 58.9 45 3.2 37.8
19:05 1012 29.88 841 24.83 14.9 58.8 45 3.2 37.7
19:10 1012 29.88 841 24.83 14.8 58.6 46 3.3 38
19:15 1012 29.88 841 24.83 14.8 58.6 46 3.4 38.1
19:20 1012 29.88 841 24.83 14.7 58.5 45 2.9 37.2
19:25 1012 29.88 841 24.83 14.6 58.2 45 3 37.4
19:30 1012 29.88 841 24.83 14.4 57.9 46 3.1 37.5
19:35 1012 29.88 841 24.83 14.2 57.6 47 3.3 37.9
19:40 1012 29.88 841 24.83 14 57.2 48 3.2 37.7
19:45 1012 29.88 841 24.83 13.8 56.8 48 3.2 37.7
19:50 1012 29.88 841 24.83 13.7 56.6 49 3.3 37.9
19:55 1012 29.88 841 24.83 13.7 56.6 48 3.1 37.6
20:00 1012 29.88 841 24.83 13.7 56.6 52 4.2 39.5
20:05 1012 29.88 841 24.83 13.2 55.8 57 5 41.1
20:10 1012 29.88 841 24.83 12.7 54.9 60 5.1 41.3
20:15 1012 29.88 841 24.83 12.6 54.8 61 5.4 41.7
20:20 1012 29.88 841 24.83 12.2 54 63 5.5 41.9
20:25 1012 29.88 841 24.83 12 53.6 63 5.3 41.5
20:30 1012 29.88 841 24.83 11.8 53.2 64 5.3 41.5
20:35 1012 29.88 841 24.83 11.7 53.1 65 5.3 41.5
20:40 1012 29.88 841 24.83 11.6 52.9 65 5.3 41.6
20:45 1012 29.88 841 24.83 11.5 52.7 66 5.4 41.7
20:50 1012 29.88 841 24.83 11.2 52.1 67 5.4 41.8
20:55 1012 29.88 841 24.83 11 51.8 69 5.6 42
21:00 1012 29.88 841 24.83 10.8 51.5 69 5.4 41.8
21:05 1012 29.88 841 24.83 10.8 51.4 69 5.4 41.8
21:10 1012 29.88 841 24.83 10.8 51.4 69 5.4 41.7
21:15 1012 29.88 841 24.83 10.7 51.2 70 5.4 41.7
21:20 1012 29.88 841 24.83 10.6 51 69 5.2 41.3
21:25 1012 29.88 841 24.83 10.5 50.9 69 5 41
21:30 1012 29.88 841 24.83 10.5 51 68 5 41
21:35 1012 29.88 841 24.83 10.8 51.4 66 4.6 40.3
21:40 1012 29.88 841 24.83 10.9 51.7 66 4.8 40.7
21:45 1012 29.88 841 24.83 10.9 51.7 65 4.7 40.5
21:50 1012 29.88 841 24.83 10.9 51.6 65 4.7 40.4
21:55 1012 29.88 841 24.83 10.9 51.6 65 4.7 40.4
22:00 1012 29.88 841 24.83 10.9 51.7 65 4.7 40.4
22:05 1012 29.88 841 24.83 10.8 51.5 65 4.6 40.3
22:10 1012 29.88 841 24.83 10.8 51.4 66 4.7 40.5
22:15 1012 29.88 841 24.83 10.8 51.4 65 4.5 40
22:20 1012 29.88 841 24.83 11 51.8 63 4.2 39.6
22:25 1012 29.88 841 24.83 11.1 51.9 66 4.9 40.8
22:30 1012 29.88 841 24.83 10.8 51.5 65 4.5 40.2
22:35 1012 29.88 841 24.83 10.8 51.5 66 4.7 40.5
22:40 1012 29.88 841 24.83 10.7 51.3 65 4.6 40.2
22:45 1012 29.88 841 24.83 10.7 51.3 66 4.7 40.5
22:50 1012 29.88 841 24.83 10.8 51.4 66 4.7 40.4
22:55 1012 29.88 841 24.83 10.8 51.4 65 4.5 40.1
23:00 1012 29.88 841 24.83 10.9 51.6 65 4.6 40.3
23:05 1011 29.85 841 24.83 10.9 51.5 66 4.7 40.5
23:10 1011 29.85 841 24.83 10.8 51.5 66 4.8 40.6
23:15 1011 29.85 841 24.83 10.8 51.5 66 4.8 40.6
23:20 1011 29.85 841 24.83 10.9 51.5 65 4.5 40.1
23:25 1011 29.85 841 24.83 10.9 51.7 65 4.7 40.4
23:30 1011 29.85 841 24.83 11 51.7 66 4.8 40.7
23:35 1011 29.85 840 24.81 10.9 51.5 65 4.7 40.4
23:40 1011 29.85 840 24.81 10.8 51.4 67 4.8 40.7
23:45 1011 29.85 840 24.81 10.8 51.4 64 4.3 39.7
23:50 1011 29.85 840 24.81 11 51.7 62 4 39.3
23:55 1011 29.85 840 24.81 11 51.8 62 4.1 39.5
24:00 1011 29.85 840 24.81 11 51.7 62 4.1 39.3